Time;durP1;ratioP1;P1;durP2;ratioP2;P2;SDS_P1;SDS_P2;PMS_P1;PMS_P2;Temp;Humidity;BMP_temperature;BMP_pressure;BME280_temperature;BME280_humidity;BME280_pressure;Samples;Min_cycle;Max_cycle;Signal;HPM_P1;HPM_P2
2022/05/05 00:01:29;;;;;;;8.23;5.93;;;12.20;42.50;;;;;;2615626;47;20159;-78
2022/05/05 00:07:17;;;;;;;7.63;5.77;;;12.30;42.40;;;;;;2614799;47;20419;-75
2022/05/05 00:23:12;;;;;;;8.40;5.83;;;11.90;52.20;;;;;;2615558;54;20402;-76
2022/05/05 00:29:19;;;;;;;11.80;6.23;;;11.70;61.40;;;;;;2615938;54;20525;-76
2022/05/05 00:35:26;;;;;;;10.93;6.30;;;11.60;63.80;;;;;;2616514;39;20758;-76
2022/05/05 00:48:26;;;;;;;10.13;6.03;;;11.80;62.80;;;;;;2613794;54;20417;-77
2022/05/05 00:58:03;;;;;;;9.20;6.23;;;11.80;66.20;;;;;;2614655;39;20852;-76
2022/05/05 01:17:49;;;;;;;8.00;5.70;;;12.00;62.90;;;;;;2609046;54;20407;-80
2022/05/05 01:20:17;;;;;;;9.20;6.83;;;12.00;63.00;;;;;;2612583;31;20884;-79
2022/05/05 01:22:43;;;;;;;10.37;7.57;;;12.00;64.40;;;;;;2609089;54;20206;-75
2022/05/05 01:28:12;;;;;;;10.40;6.80;;;11.80;67.70;;;;;;2611851;54;20424;-75
2022/05/05 01:30:40;;;;;;;8.97;5.90;;;12.10;65.50;;;;;;2610922;54;20387;-75
2022/05/05 01:33:14;;;;;;;7.60;6.50;;;12.00;64.80;;;;;;2611840;54;20499;-75
2022/05/05 01:35:41;;;;;;;14.23;7.30;;;11.90;66.50;;;;;;2611570;54;20991;-75
2022/05/05 01:38:08;;;;;;;11.63;7.23;;;11.90;67.90;;;;;;2611149;54;20395;-74
2022/05/05 01:40:36;;;;;;;7.43;6.50;;;11.80;71.40;;;;;;2610116;54;20403;-74
2022/05/05 01:43:09;;;;;;;15.27;6.63;;;11.90;72.00;;;;;;2611130;54;20439;-74
2022/05/05 01:45:35;;;;;;;10.90;6.60;;;11.80;70.90;;;;;;2610661;54;20431;-74
2022/05/05 01:48:02;;;;;;;7.60;6.67;;;11.80;73.30;;;;;;2611630;54;20410;-72
2022/05/05 01:50:31;;;;;;;10.00;7.07;;;11.90;72.80;;;;;;2611879;54;20408;-73
2022/05/05 01:52:59;;;;;;;8.70;7.07;;;11.90;70.30;;;;;;2612332;39;20858;-71
2022/05/05 01:55:25;;;;;;;9.20;6.63;;;12.00;67.90;;;;;;2610572;54;20411;-72
2022/05/05 01:57:51;;;;;;;11.57;6.33;;;12.10;64.90;;;;;;2611604;39;20812;-74
2022/05/05 02:00:19;;;;;;;10.27;7.07;;;12.10;61.80;;;;;;2611192;46;20483;-74
2022/05/05 02:02:45;;;;;;;13.93;6.30;;;12.00;60.10;;;;;;2611598;54;20439;-82
2022/05/05 02:05:12;;;;;;;7.60;6.83;;;12.00;60.40;;;;;;2611573;54;20490;-82
2022/05/05 02:07:38;;;;;;;9.00;6.77;;;11.90;61.20;;;;;;2611819;54;20428;-80
2022/05/05 02:10:06;;;;;;;10.27;7.30;;;12.00;63.70;;;;;;2611451;54;20380;-80
2022/05/05 02:12:32;;;;;;;10.17;7.80;;;12.10;63.70;;;;;;2610744;46;20431;-78
2022/05/05 02:14:58;;;;;;;12.90;7.00;;;12.20;63.50;;;;;;2611232;54;20406;-77
2022/05/05 02:17:24;;;;;;;9.03;7.40;;;12.30;63.10;;;;;;2611107;54;21534;-77
2022/05/05 02:19:50;;;;;;;14.13;6.87;;;12.30;62.10;;;;;;2609755;54;20423;-77
2022/05/05 02:22:16;;;;;;;12.23;8.27;;;12.20;62.20;;;;;;2609636;54;20586;-75
2022/05/05 02:24:42;;;;;;;10.20;7.53;;;12.20;64.10;;;;;;2610747;39;21127;-75
2022/05/05 02:27:09;;;;;;;8.63;6.60;;;12.20;65.40;;;;;;2610502;54;20165;-79
2022/05/05 02:29:35;;;;;;;9.83;7.07;;;12.20;66.30;;;;;;2611235;54;20412;-79
2022/05/05 02:32:00;;;;;;;12.50;7.27;;;12.30;66.00;;;;;;2608934;54;20489;-76
2022/05/05 02:34:26;;;;;;;11.63;7.67;;;12.30;67.50;;;;;;2610577;54;20960;-76
2022/05/05 02:39:36;;;;;;;10.47;6.90;;;12.10;75.70;;;;;;2610156;54;20157;-72
2022/05/05 02:42:02;;;;;;;7.80;6.90;;;12.10;78.30;;;;;;2611522;54;20391;-79
2022/05/05 02:44:28;;;;;;;8.97;7.57;;;12.10;79.80;;;;;;2611345;54;21052;-79
2022/05/05 02:46:54;;;;;;;17.80;8.17;;;12.20;83.80;;;;;;2613433;54;20411;-72
2022/05/05 02:49:20;;;;;;;8.27;6.90;;;12.20;87.40;;;;;;2611775;46;20395;-79
2022/05/05 02:51:46;;;;;;;9.87;7.87;;;12.20;87.40;;;;;;2612006;54;21356;-79
2022/05/05 02:56:56;;;;;;;14.43;7.80;;;12.10;87.30;;;;;;2612415;54;20193;-72
2022/05/05 02:59:22;;;;;;;14.03;6.73;;;11.90;92.20;;;;;;2611859;54;21251;-74
2022/05/05 03:01:48;;;;;;;14.83;7.73;;;12.00;94.00;;;;;;2612918;54;20159;-74
2022/05/05 03:04:14;;;;;;;8.50;6.83;;;11.90;94.70;;;;;;2613068;39;20890;-72
2022/05/05 03:06:39;;;;;;;9.87;7.23;;;11.80;95.90;;;;;;2611892;54;20154;-75
2022/05/05 03:09:05;;;;;;;11.13;7.03;;;11.60;98.40;;;;;;2609857;54;20238;-73
2022/05/05 03:11:32;;;;;;;7.90;7.10;;;11.50;99.90;;;;;;2610478;54;20159;-73
2022/05/05 03:13:58;;;;;;;12.83;7.83;;;11.70;99.90;;;;;;2610879;54;20179;-72
2022/05/05 03:16:23;;;;;;;12.03;9.00;;;11.70;99.90;;;;;;2610698;54;20995;-72
2022/05/05 03:18:49;;;;;;;11.67;7.83;;;11.50;99.90;;;;;;2609749;54;20238;-77
2022/05/05 03:21:15;;;;;;;13.80;8.33;;;11.50;99.90;;;;;;2610956;54;20175;-77
2022/05/05 03:23:41;;;;;;;14.20;9.70;;;11.40;99.90;;;;;;2611834;54;20428;-76
2022/05/05 03:26:07;;;;;;;12.40;8.03;;;11.20;99.90;;;;;;2612194;54;20166;-77
2022/05/05 03:28:33;;;;;;;9.60;7.90;;;11.40;99.90;;;;;;2611567;54;20254;-72
2022/05/05 03:30:58;;;;;;;13.73;8.40;;;11.20;99.90;;;;;;2609754;46;20468;-73
2022/05/05 03:33:24;;;;;;;13.57;8.60;;;11.10;99.90;;;;;;2611852;54;20258;-79
2022/05/05 03:35:50;;;;;;;10.20;8.23;;;11.00;99.90;;;;;;2612117;39;20869;-79
2022/05/05 03:38:16;;;;;;;11.27;8.00;;;11.20;99.90;;;;;;2612418;39;20569;-80
2022/05/05 03:40:42;;;;;;;11.97;8.00;;;11.10;99.90;;;;;;2612433;54;20150;-80
2022/05/05 03:43:07;;;;;;;11.30;8.03;;;11.10;99.90;;;;;;2610744;54;21093;-80
2022/05/05 03:45:33;;;;;;;13.47;8.03;;;11.10;99.90;;;;;;2611750;54;20771;-79
2022/05/05 03:47:59;;;;;;;9.83;7.00;;;11.10;99.90;;;;;;2612428;54;20170;-80
2022/05/05 03:50:25;;;;;;;8.60;7.70;;;11.10;99.90;;;;;;2612160;54;20263;-73
2022/05/05 03:52:50;;;;;;;9.13;8.23;;;11.00;99.90;;;;;;2610669;54;20155;-73
2022/05/05 03:55:16;;;;;;;21.70;7.97;;;11.00;99.90;;;;;;2611931;39;20543;-73
2022/05/05 03:57:42;;;;;;;11.23;8.00;;;11.00;99.90;;;;;;2611931;39;20588;-73
2022/05/05 04:00:08;;;;;;;11.70;8.00;;;11.10;99.90;;;;;;2611394;54;20441;-73
2022/05/05 04:02:40;;;;;;;13.13;11.03;;;11.20;99.90;;;;;;2612393;54;20188;-73
2022/05/05 04:05:06;;;;;;;14.10;8.13;;;11.30;99.90;;;;;;2612126;54;20999;-74
2022/05/05 04:07:32;;;;;;;9.20;7.90;;;11.20;99.90;;;;;;2612582;46;20262;-74
2022/05/05 04:09:58;;;;;;;18.03;8.83;;;11.20;99.90;;;;;;2611872;54;20396;-73
2022/05/05 04:12:24;;;;;;;12.70;8.27;;;11.10;99.90;;;;;;2611741;39;20594;-74
2022/05/05 04:14:51;;;;;;;29.97;10.53;;;11.20;99.90;;;;;;2611279;54;20479;-73
2022/05/05 04:17:17;;;;;;;12.30;8.17;;;11.30;99.90;;;;;;2612260;54;20414;-73
2022/05/05 04:19:43;;;;;;;11.80;9.20;;;11.10;99.90;;;;;;2609788;54;20426;-73
2022/05/05 04:22:09;;;;;;;19.63;9.10;;;11.00;99.90;;;;;;2610560;54;20166;-73
2022/05/05 04:24:35;;;;;;;13.60;8.53;;;11.10;99.90;;;;;;2611293;54;21578;-74
2022/05/05 04:27:01;;;;;;;12.17;9.40;;;11.00;99.90;;;;;;2612657;54;20402;-74
2022/05/05 04:29:27;;;;;;;11.70;8.20;;;11.00;99.90;;;;;;2610378;46;20707;-74
2022/05/05 04:31:53;;;;;;;19.57;9.77;;;11.10;99.90;;;;;;2609520;46;20453;-74
2022/05/05 04:34:20;;;;;;;11.90;8.90;;;11.20;99.90;;;;;;2611320;54;20778;-74
2022/05/05 04:36:46;;;;;;;11.17;9.03;;;11.20;99.90;;;;;;2611112;54;20452;-74
2022/05/05 04:39:12;;;;;;;11.33;9.70;;;11.30;99.90;;;;;;2609829;54;20543;-75
2022/05/05 04:41:37;;;;;;;19.17;10.77;;;11.30;99.90;;;;;;2609143;39;20959;-73
2022/05/05 04:44:03;;;;;;;11.87;10.23;;;11.20;99.90;;;;;;2610932;54;20166;-74
2022/05/05 04:46:29;;;;;;;19.33;10.30;;;11.20;99.90;;;;;;2611896;54;20149;-76
2022/05/05 04:48:56;;;;;;;16.50;10.07;;;11.30;99.90;;;;;;2610598;54;20439;-73
2022/05/05 04:51:22;;;;;;;21.23;11.30;;;11.40;99.90;;;;;;2609777;54;20154;-74
2022/05/05 04:53:47;;;;;;;21.60;12.93;;;11.60;99.90;;;;;;2609837;54;20462;-75
2022/05/05 04:56:14;;;;;;;18.57;12.13;;;11.80;99.90;;;;;;2612158;54;20158;-74
2022/05/05 04:58:41;;;;;;;12.37;9.80;;;11.80;99.90;;;;;;2612980;54;20167;-74
2022/05/05 05:01:06;;;;;;;14.37;9.90;;;12.00;99.90;;;;;;2611957;54;20384;-74
2022/05/05 05:03:32;;;;;;;12.50;8.43;;;12.10;99.90;;;;;;2612243;54;20411;-74
2022/05/05 05:05:58;;;;;;;23.07;9.40;;;12.10;99.90;;;;;;2612072;54;20514;-75
2022/05/05 05:08:24;;;;;;;15.43;9.07;;;12.30;99.90;;;;;;2612706;54;20281;-78
2022/05/05 05:10:50;;;;;;;16.50;9.37;;;12.60;99.90;;;;;;2612069;54;20407;-78
2022/05/05 05:13:16;;;;;;;15.20;9.73;;;12.70;99.90;;;;;;2612648;54;20400;-74
2022/05/05 05:15:42;;;;;;;16.93;10.80;;;12.70;99.90;;;;;;2611844;54;20194;-74
2022/05/05 05:18:07;;;;;;;14.47;10.30;;;12.80;98.10;;;;;;2612347;54;20159;-73
2022/05/05 05:20:33;;;;;;;20.20;9.90;;;12.80;96.90;;;;;;2612281;54;20254;-76
2022/05/05 05:22:59;;;;;;;12.83;9.93;;;12.90;94.90;;;;;;2612879;54;20155;-76
2022/05/05 05:25:25;;;;;;;15.43;9.67;;;12.90;95.30;;;;;;2611912;54;20702;-76
2022/05/05 05:27:51;;;;;;;17.10;8.93;;;12.80;95.80;;;;;;2612865;54;20181;-76
2022/05/05 05:30:16;;;;;;;11.73;8.50;;;12.50;97.60;;;;;;2611850;54;20158;-77
2022/05/05 05:32:42;;;;;;;16.37;9.00;;;12.50;98.60;;;;;;2612793;54;20147;-76
2022/05/05 05:35:08;;;;;;;13.40;8.30;;;12.60;97.30;;;;;;2613498;54;20167;-81
2022/05/05 05:37:34;;;;;;;15.10;8.60;;;12.80;96.50;;;;;;2612435;54;20218;-81
2022/05/05 05:40:00;;;;;;;13.77;8.40;;;12.60;95.20;;;;;;2611749;54;21175;-75
2022/05/05 05:42:25;;;;;;;9.73;8.73;;;12.60;97.20;;;;;;2611567;39;20569;-74
2022/05/05 05:44:51;;;;;;;14.70;8.13;;;12.60;97.30;;;;;;2613579;54;20408;-81
2022/05/05 05:47:17;;;;;;;20.70;7.93;;;12.60;97.10;;;;;;2613613;47;20164;-81
2022/05/05 05:49:43;;;;;;;11.30;8.93;;;12.90;96.00;;;;;;2612115;47;20272;-81
2022/05/05 05:52:09;;;;;;;12.13;8.60;;;13.10;92.20;;;;;;2609278;54;20151;-81
2022/05/05 05:54:34;;;;;;;14.70;10.50;;;13.40;84.00;;;;;;2608261;54;20174;-75
2022/05/05 05:57:00;;;;;;;12.77;8.67;;;13.60;77.50;;;;;;2609165;54;20150;-75
2022/05/05 05:59:26;;;;;;;19.33;10.20;;;13.80;71.50;;;;;;2610664;39;20661;-74
2022/05/05 06:04:37;;;;;;;11.53;7.90;;;14.00;58.80;;;;;;2611318;54;21074;-73
2022/05/05 06:07:03;;;;;;;10.43;8.17;;;14.40;56.30;;;;;;2611781;54;20562;-74
2022/05/05 06:09:29;;;;;;;12.97;7.70;;;14.60;54.60;;;;;;2611076;47;20479;-73
2022/05/05 06:11:55;;;;;;;17.57;9.37;;;14.40;54.40;;;;;;2609122;54;20511;-74
2022/05/05 06:14:21;;;;;;;14.40;8.40;;;14.10;59.10;;;;;;2611133;54;20743;-73
2022/05/05 06:16:46;;;;;;;11.33;9.70;;;14.30;59.00;;;;;;2611598;54;20467;-75
2022/05/05 06:19:12;;;;;;;14.70;9.07;;;14.60;58.00;;;;;;2610950;47;20428;-73
2022/05/05 06:21:39;;;;;;;14.13;9.47;;;14.70;55.10;;;;;;2611271;39;20625;-73
2022/05/05 06:24:05;;;;;;;16.60;9.70;;;14.70;55.30;;;;;;2609317;54;20404;-74
2022/05/05 06:26:32;;;;;;;16.57;10.10;;;14.70;55.50;;;;;;2611501;39;20811;-74
2022/05/05 06:28:58;;;;;;;10.43;8.53;;;14.80;54.20;;;;;;2609762;54;20442;-74
2022/05/05 06:31:24;;;;;;;16.87;9.67;;;14.80;54.40;;;;;;2609047;54;20412;-73
2022/05/05 06:33:53;;;;;;;17.10;8.90;;;14.70;54.50;;;;;;2609312;54;20394;-73
2022/05/05 06:36:19;;;;;;;17.50;10.97;;;15.00;52.60;;;;;;2610989;54;20159;-75
2022/05/05 06:38:46;;;;;;;15.53;10.70;;;15.10;50.20;;;;;;2612091;54;20996;-74
2022/05/05 06:41:12;;;;;;;14.03;9.60;;;15.20;49.90;;;;;;2610111;46;20435;-76
2022/05/05 06:43:38;;;;;;;16.10;9.97;;;15.40;48.60;;;;;;2610471;54;20527;-74
2022/05/05 06:46:58;;;;;;;;;;;;;;;;;;;;;
2022/05/05 06:50:06;;;;;;;15.33;10.10;;;15.50;45.40;;;;;;2609174;46;20442;-79
2022/05/05 06:56:46;;;;;;;14.40;9.70;;;15.90;36.90;;;;;;2609424;39;20839;-75
2022/05/05 06:59:58;;;;;;;12.07;9.77;;;16.00;35.70;;;;;;2610872;54;20422;-75
2022/05/05 07:06:45;;;;;;;12.97;10.80;;;16.70;31.70;;;;;;2609707;54;20932;-75
2022/05/05 07:14:00;;;;;;;18.30;9.90;;;16.60;32.60;;;;;;2611185;47;20448;-75
2022/05/05 07:20:19;;;;;;;19.60;12.80;;;16.40;36.00;;;;;;2611943;54;20408;-74
2022/05/05 07:23:21;;;;;;;17.73;9.27;;;16.40;33.20;;;;;;2607821;54;20460;-76
2022/05/05 07:39:43;;;;;;;17.10;11.33;;;16.60;30.90;;;;;;2539658;54;52190;-75
2022/05/05 07:42:09;;;;;;;17.47;11.23;;;16.70;32.80;;;;;;2616008;54;20417;-76
2022/05/05 07:45:26;;;;;;;;;;;;;;;;;;;;;
2022/05/05 07:47:52;;;;;;;15.90;11.20;;;16.30;34.70;;;;;;2616238;54;20509;-72
2022/05/05 07:50:18;;;;;;;13.17;10.00;;;16.20;32.70;;;;;;2616171;54;21005;-73
2022/05/05 07:52:44;;;;;;;13.60;10.67;;;16.60;29.60;;;;;;2616494;54;20395;-73
2022/05/05 07:55:10;;;;;;;16.60;10.37;;;17.20;25.30;;;;;;2616311;54;21190;-74
2022/05/05 07:57:44;;;;;;;11.60;10.50;;;17.30;25.60;;;;;;2616406;54;20444;-74
2022/05/05 08:00:12;;;;;;;14.43;9.40;;;17.60;23.10;;;;;;2615702;54;20413;-74
2022/05/05 08:02:38;;;;;;;14.80;10.30;;;17.50;21.30;;;;;;2616933;54;20952;-71
2022/05/05 08:05:07;;;;;;;25.30;12.60;;;17.60;19.00;;;;;;2616597;54;20389;-72
2022/05/05 08:07:33;;;;;;;14.47;10.80;;;17.90;19.20;;;;;;2614803;38;20569;-75
2022/05/05 08:09:59;;;;;;;20.03;11.10;;;18.20;17.70;;;;;;2615820;54;20397;-73
2022/05/05 08:12:25;;;;;;;12.50;10.87;;;18.80;13.30;;;;;;2616498;54;20424;-72
2022/05/05 08:14:51;;;;;;;14.23;11.40;;;19.10;7.40;;;;;;2615690;54;20176;-73
2022/05/05 08:17:17;;;;;;;14.43;11.00;;;19.10;5.60;;;;;;2616985;54;20403;-73
2022/05/05 08:19:42;;;;;;;14.87;11.87;;;19.70;1.00;;;;;;2616326;54;20386;-73
2022/05/05 08:22:08;;;;;;;12.57;10.73;;;19.50;1.00;;;;;;2616960;31;20879;-73
2022/05/05 08:30:05;;;;;;;17.30;10.20;;;20.00;1.00;;;;;;2615977;54;20405;-73
2022/05/05 08:32:31;;;;;;;11.53;10.33;;;20.30;1.00;;;;;;2616981;31;20828;-73
2022/05/05 08:34:57;;;;;;;16.07;11.50;;;20.30;1.00;;;;;;2615379;54;20402;-73
2022/05/05 08:37:23;;;;;;;15.80;11.57;;;20.20;1.00;;;;;;2616508;54;20404;-73
2022/05/05 08:39:48;;;;;;;15.93;11.40;;;20.50;1.00;;;;;;2612710;54;20150;-73
2022/05/05 08:42:14;;;;;;;16.57;12.73;;;20.50;1.00;;;;;;2610956;54;20158;-75
2022/05/05 08:44:40;;;;;;;21.10;12.90;;;20.10;1.00;;;;;;2612466;54;20147;-73
2022/05/05 08:47:09;;;;;;;13.00;11.13;;;20.30;1.00;;;;;;2613174;54;20416;-72
2022/05/05 08:49:37;;;;;;;17.00;11.90;;;20.60;1.00;;;;;;2613145;39;20794;-73
2022/05/05 08:52:07;;;;;;;19.70;12.23;;;21.00;1.00;;;;;;2612081;39;20770;-73
2022/05/05 08:54:34;;;;;;;15.83;12.37;;;21.00;1.00;;;;;;2612948;54;20368;-75
2022/05/05 08:57:00;;;;;;;15.93;12.13;;;21.20;1.00;;;;;;2613340;54;20391;-74
2022/05/05 08:59:29;;;;;;;15.93;12.57;;;21.40;1.00;;;;;;2612332;54;20483;-74
2022/05/05 09:01:55;;;;;;;17.83;12.30;;;22.00;1.00;;;;;;2611805;54;20404;-75
2022/05/05 09:04:22;;;;;;;15.63;13.00;;;22.10;1.00;;;;;;2612604;46;20396;-75
2022/05/05 09:06:51;;;;;;;16.60;11.70;;;22.00;1.00;;;;;;2613020;54;20410;-76
2022/05/05 09:09:24;;;;;;;21.20;12.90;;;22.30;1.00;;;;;;2611220;54;20404;-75
2022/05/05 09:12:12;;;;;;;19.20;13.30;;;22.30;1.00;;;;;;2611739;54;20395;-74
2022/05/05 09:14:56;;;;;;;15.27;12.90;;;22.50;1.00;;;;;;2611976;54;20399;-74
2022/05/05 09:17:29;;;;;;;17.10;13.43;;;22.70;1.00;;;;;;2611869;54;20864;-75
2022/05/05 09:19:56;;;;;;;16.50;11.50;;;22.70;1.00;;;;;;2610524;54;20534;-77
2022/05/05 09:22:24;;;;;;;27.03;13.97;;;22.60;1.00;;;;;;2611302;54;20399;-74
2022/05/05 09:24:56;;;;;;;17.87;13.93;;;22.60;1.00;;;;;;2612617;54;20442;-73
2022/05/05 09:27:24;;;;;;;19.37;13.47;;;22.80;1.00;;;;;;2610786;47;20408;-77
2022/05/05 09:30:14;;;;;;;21.63;15.13;;;22.30;1.00;;;;;;2612441;54;20827;-75
2022/05/05 09:32:45;;;;;;;16.00;14.40;;;22.90;1.00;;;;;;2612441;39;20765;-74
2022/05/05 09:35:19;;;;;;;18.07;13.87;;;22.90;1.00;;;;;;2612650;39;20794;-77
2022/05/05 09:37:48;;;;;;;20.27;15.90;;;22.80;1.00;;;;;;2612570;54;20534;-74
2022/05/05 09:40:24;;;;;;;19.30;16.33;;;22.40;1.00;;;;;;2613485;39;20795;-74
2022/05/05 09:42:55;;;;;;;16.30;14.30;;;22.50;1.00;;;;;;2613107;54;20391;-75
2022/05/05 09:45:26;;;;;;;17.70;14.53;;;22.50;1.00;;;;;;2611952;46;20491;-74
2022/05/05 09:48:01;;;;;;;20.40;14.10;;;22.90;1.00;;;;;;2612029;54;20423;-75
2022/05/05 09:50:37;;;;;;;19.83;16.90;;;23.40;1.00;;;;;;2612809;54;20396;-74
2022/05/05 09:58:39;;;;;;;18.00;14.13;;;21.90;1.00;;;;;;2613048;54;20411;-73
2022/05/05 10:01:13;;;;;;;20.97;15.27;;;21.10;1.00;;;;;;2613356;39;20811;-75
2022/05/05 10:04:02;;;;;;;16.23;13.70;;;21.40;1.00;;;;;;2611864;54;20421;-74
2022/05/05 10:06:31;;;;;;;16.43;13.77;;;21.90;1.00;;;;;;2612432;47;20391;-75
2022/05/05 10:09:08;;;;;;;13.10;11.90;;;22.60;1.00;;;;;;2613031;46;20409;-74
2022/05/05 10:11:43;;;;;;;18.63;13.63;;;23.50;1.00;;;;;;2612997;39;20815;-75
2022/05/05 10:14:12;;;;;;;15.80;14.17;;;23.80;1.00;;;;;;2612111;54;20447;-73
2022/05/05 10:16:43;;;;;;;16.97;15.17;;;24.10;1.00;;;;;;2612938;54;20401;-74
2022/05/05 10:19:11;;;;;;;16.53;13.60;;;24.70;1.00;;;;;;2612036;47;21019;-73
2022/05/05 10:21:59;;;;;;;16.63;14.33;;;24.70;1.00;;;;;;2611740;47;20399;-75
2022/05/05 10:24:31;;;;;;;18.63;15.23;;;24.40;1.00;;;;;;2613226;47;20465;-72
2022/05/05 10:26:58;;;;;;;18.73;14.40;;;24.20;1.00;;;;;;2612251;54;20975;-78
2022/05/05 10:29:40;;;;;;;18.40;16.20;;;23.80;1.00;;;;;;2612500;54;20415;-75
2022/05/05 10:32:15;;;;;;;16.13;14.43;;;24.30;1.00;;;;;;2612144;54;20410;-76
2022/05/05 10:34:45;;;;;;;17.43;15.67;;;24.60;1.00;;;;;;2612994;47;20446;-74
2022/05/05 10:37:18;;;;;;;15.60;14.20;;;24.90;1.00;;;;;;2612042;54;20398;-74
2022/05/05 10:39:49;;;;;;;16.47;14.00;;;25.00;1.00;;;;;;2611968;47;20402;-74
2022/05/05 10:42:33;;;;;;;16.43;13.40;;;24.80;1.00;;;;;;2612345;54;20395;-75
2022/05/05 10:45:12;;;;;;;17.00;14.90;;;24.90;1.00;;;;;;2611843;54;20402;-73
2022/05/05 10:48:06;;;;;;;14.33;12.93;;;24.90;1.00;;;;;;2611135;54;20420;-74
2022/05/05 10:50:50;;;;;;;15.90;14.20;;;24.80;1.00;;;;;;2611742;46;20395;-75
2022/05/05 10:53:31;;;;;;;13.80;12.20;;;24.80;1.00;;;;;;2611935;46;20886;-75
2022/05/05 10:56:02;;;;;;;15.13;13.60;;;24.50;1.00;;;;;;2612228;54;20930;-74
2022/05/05 10:59:02;;;;;;;13.90;12.37;;;24.10;1.00;;;;;;2612656;47;20412;-75
2022/05/05 11:01:41;;;;;;;14.60;13.10;;;23.20;1.00;;;;;;2612915;39;20832;-74
2022/05/05 11:04:17;;;;;;;17.17;13.60;;;22.50;1.00;;;;;;2612342;54;20463;-73
2022/05/05 11:06:49;;;;;;;14.23;11.63;;;22.00;1.00;;;;;;2612999;54;20418;-75
2022/05/05 11:09:35;;;;;;;13.70;11.53;;;21.60;1.00;;;;;;2612571;54;20411;-74
2022/05/05 11:12:23;;;;;;;14.60;13.10;;;21.50;1.00;;;;;;2612987;54;20433;-74
2022/05/05 11:23:34;;;;;;;15.50;12.90;;;21.80;1.00;;;;;;2612698;54;20412;-74
2022/05/05 11:26:00;;;;;;;16.13;12.40;;;21.80;1.00;;;;;;2611861;54;20955;-75
2022/05/05 11:28:30;;;;;;;14.80;11.63;;;21.60;1.00;;;;;;2611439;47;20422;-74
2022/05/05 11:30:56;;;;;;;12.33;11.00;;;21.20;1.00;;;;;;2612293;54;20406;-77
2022/05/05 11:33:22;;;;;;;19.30;11.43;;;21.10;1.00;;;;;;2611709;54;20716;-74
2022/05/05 11:36:01;;;;;;;17.60;11.70;;;20.70;1.00;;;;;;2612756;39;20820;-76
2022/05/05 11:38:29;;;;;;;13.70;11.63;;;21.10;1.00;;;;;;2612518;54;20419;-74
2022/05/05 11:41:05;;;;;;;13.30;11.40;;;22.20;1.00;;;;;;2612155;54;20387;-78
2022/05/05 11:46:19;;;;;;;12.93;11.17;;;23.40;1.00;;;;;;2613282;39;20788;-76
2022/05/05 11:48:53;;;;;;;11.90;10.60;;;24.00;1.00;;;;;;2612776;39;20837;-73
2022/05/05 11:51:30;;;;;;;13.73;11.37;;;24.20;1.00;;;;;;2612316;39;21135;-76
2022/05/05 11:54:07;;;;;;;11.73;10.53;;;23.90;1.00;;;;;;2612414;39;20894;-74
2022/05/05 11:56:37;;;;;;;13.13;11.77;;;23.60;1.00;;;;;;2612949;39;20800;-74
2022/05/05 12:02:12;;;;;;;9.73;8.47;;;22.60;1.00;;;;;;2610976;54;20446;-74
2022/05/05 12:04:45;;;;;;;11.97;10.57;;;21.90;1.00;;;;;;2611925;54;20393;-76
2022/05/05 12:07:20;;;;;;;10.97;9.90;;;21.70;1.00;;;;;;2612128;54;20497;-74
2022/05/05 12:10:02;;;;;;;16.00;9.90;;;21.30;1.00;;;;;;2611330;54;20434;-75
2022/05/05 12:12:30;;;;;;;11.70;9.20;;;21.10;1.00;;;;;;2611601;54;20391;-74
2022/05/05 12:14:58;;;;;;;16.63;9.73;;;21.20;1.00;;;;;;2612902;54;20974;-76
2022/05/05 12:17:32;;;;;;;10.03;9.07;;;21.20;1.00;;;;;;2611935;39;21190;-73
2022/05/05 12:20:06;;;;;;;10.73;9.63;;;21.60;1.00;;;;;;2613925;39;21234;-75
2022/05/05 12:22:34;;;;;;;10.80;9.77;;;21.90;1.00;;;;;;2612275;46;20511;-72
2022/05/05 12:25:16;;;;;;;9.97;9.00;;;21.90;1.00;;;;;;2612611;54;20406;-75
2022/05/05 12:27:46;;;;;;;11.40;9.67;;;22.00;1.00;;;;;;2613192;54;20498;-74
2022/05/05 12:30:29;;;;;;;12.83;11.50;;;21.70;1.00;;;;;;2611167;54;20402;-75
2022/05/05 12:32:55;;;;;;;9.50;8.50;;;21.40;1.00;;;;;;2612388;54;20458;-73
2022/05/05 12:35:39;;;;;;;8.70;7.77;;;21.60;1.00;;;;;;2612610;39;20811;-75
2022/05/05 12:38:15;;;;;;;10.53;8.50;;;21.60;1.00;;;;;;2611771;54;20442;-74
2022/05/05 12:40:46;;;;;;;9.73;8.93;;;21.40;1.00;;;;;;2610956;54;21023;-74
2022/05/05 12:43:21;;;;;;;10.20;9.13;;;21.20;1.00;;;;;;2611694;46;20419;-74
2022/05/05 12:45:49;;;;;;;14.33;7.60;;;21.10;1.00;;;;;;2612427;39;20781;-75
2022/05/05 12:48:15;;;;;;;10.37;9.27;;;20.80;1.00;;;;;;2611313;54;20411;-74
2022/05/05 12:50:48;;;;;;;9.77;7.63;;;20.60;1.00;;;;;;2612396;54;20406;-77
2022/05/05 13:01:48;;;;;;;11.03;8.53;;;20.50;1.00;;;;;;2612112;54;20448;-75
2022/05/05 13:04:18;;;;;;;8.80;7.93;;;20.40;1.00;;;;;;2613038;39;20507;-76
2022/05/05 13:06:48;;;;;;;11.27;9.17;;;20.40;1.00;;;;;;2612307;54;20541;-73
2022/05/05 13:09:15;;;;;;;10.60;9.50;;;20.40;1.00;;;;;;2611959;54;20403;-77
2022/05/05 13:11:44;;;;;;;9.60;8.70;;;20.50;1.00;;;;;;2612686;54;20414;-75
2022/05/05 13:14:11;;;;;;;10.10;9.17;;;20.80;1.00;;;;;;2612986;54;20410;-76
2022/05/05 13:16:40;;;;;;;10.03;8.60;;;21.10;1.00;;;;;;2612573;54;21408;-74
2022/05/05 13:19:09;;;;;;;8.63;7.80;;;21.20;1.00;;;;;;2611063;47;20403;-76
2022/05/05 13:21:38;;;;;;;9.47;8.50;;;21.90;1.00;;;;;;2613120;54;20562;-74
2022/05/05 13:24:06;;;;;;;9.67;8.70;;;22.60;1.00;;;;;;2611233;54;20403;-75
2022/05/05 13:26:32;;;;;;;10.17;9.33;;;22.70;1.00;;;;;;2610928;54;20399;-74
2022/05/05 13:29:03;;;;;;;11.40;8.97;;;23.30;1.00;;;;;;2611428;54;20388;-76
2022/05/05 13:31:32;;;;;;;10.03;8.40;;;23.20;1.00;;;;;;2613488;54;20479;-74
2022/05/05 13:34:00;;;;;;;9.27;7.90;;;23.30;1.00;;;;;;2612533;54;20502;-74
2022/05/05 13:36:27;;;;;;;8.87;7.90;;;23.30;1.00;;;;;;2613006;46;20518;-75
2022/05/05 13:38:54;;;;;;;9.37;7.23;;;22.70;1.00;;;;;;2612864;54;20423;-74
2022/05/05 13:41:20;;;;;;;10.40;8.77;;;22.30;1.00;;;;;;2611938;54;20376;-76
2022/05/05 13:43:53;;;;;;;9.23;8.33;;;22.20;1.00;;;;;;2611949;54;20411;-75
2022/05/05 13:46:19;;;;;;;9.50;8.40;;;22.00;1.00;;;;;;2613259;54;20493;-74
2022/05/05 13:48:45;;;;;;;21.00;8.80;;;21.90;1.00;;;;;;2612425;54;20403;-77
2022/05/05 13:51:14;;;;;;;8.90;8.10;;;21.80;1.00;;;;;;2628755;36;21224;-76
2022/05/05 13:54:12;;;;;;;9.27;8.33;;;21.60;1.00;;;;;;2612034;54;20411;-75
2022/05/05 13:56:41;;;;;;;9.27;8.47;;;21.50;1.00;;;;;;2611962;54;20467;-76
2022/05/05 13:59:16;;;;;;;7.87;7.17;;;21.40;1.00;;;;;;2610474;54;20403;-73
2022/05/05 14:01:48;;;;;;;7.60;6.90;;;21.40;1.00;;;;;;2610507;54;20407;-77
2022/05/05 14:04:23;;;;;;;8.27;7.40;;;21.00;1.00;;;;;;2611285;54;20510;-75
2022/05/05 14:06:53;;;;;;;7.37;6.63;;;20.90;1.00;;;;;;2610135;54;20522;-75
2022/05/05 14:12:10;;;;;;;11.00;8.00;;;21.00;1.00;;;;;;2610261;46;20413;-76
2022/05/05 14:14:39;;;;;;;387.60;349.73;;;20.90;1.00;;;;;;2610226;46;20936;-72
2022/05/05 14:17:24;;;;;;;10.27;9.30;;;20.80;1.00;;;;;;2611546;39;20875;-75
2022/05/05 14:19:55;;;;;;;7.90;7.20;;;21.00;1.00;;;;;;2609327;54;20412;-72
2022/05/05 14:22:24;;;;;;;19.93;18.03;;;20.90;1.00;;;;;;2609571;54;20468;-74
2022/05/05 14:25:10;;;;;;;10.77;9.87;;;20.70;1.00;;;;;;2610087;54;20487;-76
2022/05/05 14:27:40;;;;;;;8.10;7.40;;;20.60;1.00;;;;;;2609863;54;21631;-73
2022/05/05 14:30:07;;;;;;;8.30;7.60;;;20.70;1.00;;;;;;2610534;47;20405;-74
2022/05/05 14:32:37;;;;;;;8.43;7.73;;;20.60;1.00;;;;;;2611130;39;20782;-74
2022/05/05 14:35:10;;;;;;;8.00;7.30;;;20.60;1.00;;;;;;2611103;54;20431;-77
2022/05/05 14:37:37;;;;;;;8.53;7.00;;;20.40;1.00;;;;;;2611617;54;20461;-73
2022/05/05 14:40:12;;;;;;;8.10;6.80;;;20.50;1.00;;;;;;2610434;47;20410;-76
2022/05/05 14:42:39;;;;;;;6.87;6.27;;;20.50;1.00;;;;;;2611976;54;20406;-74
2022/05/05 14:45:06;;;;;;;8.10;7.30;;;20.60;1.00;;;;;;2611765;54;20425;-74
2022/05/05 14:47:38;;;;;;;7.87;7.17;;;20.60;1.00;;;;;;2611385;54;20418;-73
2022/05/05 14:50:05;;;;;;;8.93;8.00;;;20.40;1.00;;;;;;2611414;54;20414;-75
2022/05/05 14:52:57;;;;;;;8.83;8.00;;;20.30;1.00;;;;;;2611986;39;20806;-75
2022/05/05 14:55:29;;;;;;;10.17;7.50;;;20.30;1.00;;;;;;2609410;54;20406;-75
2022/05/05 14:57:55;;;;;;;9.93;9.17;;;20.30;1.00;;;;;;2611074;54;20422;-73
2022/05/05 15:00:21;;;;;;;11.93;8.97;;;20.50;1.00;;;;;;2611186;46;20987;-74
2022/05/05 15:02:47;;;;;;;49.63;45.93;;;20.70;1.00;;;;;;2610989;54;20431;-73
2022/05/05 15:05:15;;;;;;;12.50;11.50;;;21.00;1.00;;;;;;2609868;54;21027;-74
2022/05/05 15:07:41;;;;;;;9.73;8.80;;;21.00;1.00;;;;;;2610951;54;20435;-74
2022/05/05 15:10:07;;;;;;;8.03;6.70;;;21.00;1.00;;;;;;2610766;54;20418;-74
2022/05/05 15:12:34;;;;;;;11.80;10.53;;;21.00;1.00;;;;;;2610383;54;20404;-74
2022/05/05 15:15:01;;;;;;;10.43;7.57;;;21.00;1.00;;;;;;2611549;47;20398;-75